sensor_id;sensor_type;location;lat;lon;timestamp;P1;durP1;ratioP1;P2;durP2;ratioP2
34982;SDS011;21187;50.976;13.720;2023-03-04T00:03:16;79.22;;;23.70;;
34982;SDS011;21187;50.976;13.720;2023-03-04T00:08:18;62.55;;;18.48;;
34982;SDS011;21187;50.976;13.720;2023-03-04T00:13:20;74.97;;;18.83;;
34982;SDS011;21187;50.976;13.720;2023-03-04T00:18:22;61.72;;;17.90;;
34982;SDS011;21187;50.976;13.720;2023-03-04T00:23:24;60.38;;;18.65;;
34982;SDS011;21187;50.976;13.720;2023-03-04T00:28:26;54.35;;;18.27;;
34982;SDS011;21187;50.976;13.720;2023-03-04T00:33:28;63.60;;;19.17;;
34982;SDS011;21187;50.976;13.720;2023-03-04T00:38:30;57.58;;;19.27;;
34982;SDS011;21187;50.976;13.720;2023-03-04T00:43:32;59.30;;;18.52;;
34982;SDS011;21187;50.976;13.720;2023-03-04T00:48:34;56.60;;;16.35;;
34982;SDS011;21187;50.976;13.720;2023-03-04T00:53:36;71.40;;;20.88;;
34982;SDS011;21187;50.976;13.720;2023-03-04T00:58:38;66.38;;;18.00;;
34982;SDS011;21187;50.976;13.720;2023-03-04T01:03:40;74.28;;;22.48;;
34982;SDS011;21187;50.976;13.720;2023-03-04T01:08:43;55.35;;;18.90;;
34982;SDS011;21187;50.976;13.720;2023-03-04T01:13:45;53.85;;;16.20;;
34982;SDS011;21187;50.976;13.720;2023-03-04T01:18:47;60.38;;;16.92;;
34982;SDS011;21187;50.976;13.720;2023-03-04T01:23:49;47.05;;;15.57;;
34982;SDS011;21187;50.976;13.720;2023-03-04T01:28:51;43.63;;;15.98;;
34982;SDS011;21187;50.976;13.720;2023-03-04T01:33:53;48.63;;;15.45;;
34982;SDS011;21187;50.976;13.720;2023-03-04T01:38:54;42.45;;;14.27;;
34982;SDS011;21187;50.976;13.720;2023-03-04T01:43:58;46.58;;;16.85;;
34982;SDS011;21187;50.976;13.720;2023-03-04T01:49:02;44.33;;;15.20;;
34982;SDS011;21187;50.976;13.720;2023-03-04T01:54:07;43.35;;;15.02;;
34982;SDS011;21187;50.976;13.720;2023-03-04T02:04:16;48.42;;;15.32;;
34982;SDS011;21187;50.976;13.720;2023-03-04T02:09:21;43.50;;;15.18;;
34982;SDS011;21187;50.976;13.720;2023-03-04T02:14:23;40.17;;;15.00;;
34982;SDS011;21187;50.976;13.720;2023-03-04T02:24:44;40.00;;;17.45;;
34982;SDS011;21187;50.976;13.720;2023-03-04T02:29:51;44.65;;;15.40;;
34982;SDS011;21187;50.976;13.720;2023-03-04T02:34:53;32.20;;;14.10;;
34982;SDS011;21187;50.976;13.720;2023-03-04T02:39:56;41.20;;;17.08;;
34982;SDS011;21187;50.976;13.720;2023-03-04T02:44:59;37.08;;;14.65;;
34982;SDS011;21187;50.976;13.720;2023-03-04T02:50:02;35.53;;;14.52;;
34982;SDS011;21187;50.976;13.720;2023-03-04T02:55:04;35.55;;;14.82;;
34982;SDS011;21187;50.976;13.720;2023-03-04T03:00:07;38.22;;;15.32;;
34982;SDS011;21187;50.976;13.720;2023-03-04T03:05:10;41.20;;;16.40;;
34982;SDS011;21187;50.976;13.720;2023-03-04T03:10:14;41.60;;;16.40;;
34982;SDS011;21187;50.976;13.720;2023-03-04T03:15:17;39.05;;;14.82;;
34982;SDS011;21187;50.976;13.720;2023-03-04T03:20:19;46.25;;;16.30;;
34982;SDS011;21187;50.976;13.720;2023-03-04T03:25:21;40.05;;;15.48;;
34982;SDS011;21187;50.976;13.720;2023-03-04T03:30:23;45.65;;;18.27;;
34982;SDS011;21187;50.976;13.720;2023-03-04T03:35:25;49.88;;;18.30;;
34982;SDS011;21187;50.976;13.720;2023-03-04T03:40:27;44.83;;;16.40;;
34982;SDS011;21187;50.976;13.720;2023-03-04T03:45:29;43.13;;;18.27;;
34982;SDS011;21187;50.976;13.720;2023-03-04T03:50:31;48.42;;;16.92;;
34982;SDS011;21187;50.976;13.720;2023-03-04T03:55:33;45.20;;;16.48;;
34982;SDS011;21187;50.976;13.720;2023-03-04T04:00:35;40.10;;;15.23;;
34982;SDS011;21187;50.976;13.720;2023-03-04T04:05:37;36.10;;;14.82;;
34982;SDS011;21187;50.976;13.720;2023-03-04T04:10:39;35.15;;;14.50;;
34982;SDS011;21187;50.976;13.720;2023-03-04T04:15:41;36.75;;;13.75;;
34982;SDS011;21187;50.976;13.720;2023-03-04T04:20:43;39.92;;;15.30;;
34982;SDS011;21187;50.976;13.720;2023-03-04T04:25:45;31.38;;;12.85;;
34982;SDS011;21187;50.976;13.720;2023-03-04T04:30:47;34.13;;;15.30;;
34982;SDS011;21187;50.976;13.720;2023-03-04T04:35:48;34.75;;;13.88;;
34982;SDS011;21187;50.976;13.720;2023-03-04T04:40:50;45.58;;;14.48;;
34982;SDS011;21187;50.976;13.720;2023-03-04T04:45:52;37.47;;;15.32;;
34982;SDS011;21187;50.976;13.720;2023-03-04T04:50:54;40.60;;;13.48;;
34982;SDS011;21187;50.976;13.720;2023-03-04T04:55:57;33.67;;;13.13;;
34982;SDS011;21187;50.976;13.720;2023-03-04T05:00:58;32.35;;;13.82;;
34982;SDS011;21187;50.976;13.720;2023-03-04T05:06:00;31.98;;;12.13;;
34982;SDS011;21187;50.976;13.720;2023-03-04T05:11:03;34.33;;;12.70;;
34982;SDS011;21187;50.976;13.720;2023-03-04T05:16:06;37.90;;;13.20;;
34982;SDS011;21187;50.976;13.720;2023-03-04T05:21:08;35.88;;;14.65;;
34982;SDS011;21187;50.976;13.720;2023-03-04T05:26:12;32.88;;;12.43;;
34982;SDS011;21187;50.976;13.720;2023-03-04T05:31:15;36.85;;;13.38;;
34982;SDS011;21187;50.976;13.720;2023-03-04T05:36:18;32.17;;;11.55;;
34982;SDS011;21187;50.976;13.720;2023-03-04T05:41:21;36.75;;;13.48;;
34982;SDS011;21187;50.976;13.720;2023-03-04T05:46:23;37.67;;;12.60;;
34982;SDS011;21187;50.976;13.720;2023-03-04T05:51:26;48.83;;;12.70;;
34982;SDS011;21187;50.976;13.720;2023-03-04T05:56:28;41.38;;;12.77;;
34982;SDS011;21187;50.976;13.720;2023-03-04T06:01:30;42.90;;;14.38;;
34982;SDS011;21187;50.976;13.720;2023-03-04T06:06:32;43.83;;;13.20;;
34982;SDS011;21187;50.976;13.720;2023-03-04T06:11:34;33.47;;;12.68;;
34982;SDS011;21187;50.976;13.720;2023-03-04T06:16:36;39.33;;;11.57;;
34982;SDS011;21187;50.976;13.720;2023-03-04T06:21:38;37.08;;;13.63;;
34982;SDS011;21187;50.976;13.720;2023-03-04T06:26:40;36.72;;;12.90;;
34982;SDS011;21187;50.976;13.720;2023-03-04T06:31:42;35.28;;;11.48;;
34982;SDS011;21187;50.976;13.720;2023-03-04T06:36:44;36.00;;;11.43;;
34982;SDS011;21187;50.976;13.720;2023-03-04T06:41:45;40.55;;;12.02;;
34982;SDS011;21187;50.976;13.720;2023-03-04T06:46:48;27.63;;;11.15;;
34982;SDS011;21187;50.976;13.720;2023-03-04T06:51:50;35.38;;;10.60;;
34982;SDS011;21187;50.976;13.720;2023-03-04T06:56:52;35.38;;;11.27;;
34982;SDS011;21187;50.976;13.720;2023-03-04T07:01:53;27.58;;;10.60;;
34982;SDS011;21187;50.976;13.720;2023-03-04T07:06:55;40.05;;;14.70;;
34982;SDS011;21187;50.976;13.720;2023-03-04T07:11:57;28.13;;;10.73;;
34982;SDS011;21187;50.976;13.720;2023-03-04T07:16:59;30.20;;;9.48;;
34982;SDS011;21187;50.976;13.720;2023-03-04T07:22:01;29.95;;;10.48;;
34982;SDS011;21187;50.976;13.720;2023-03-04T07:27:03;33.40;;;10.38;;
34982;SDS011;21187;50.976;13.720;2023-03-04T07:32:08;29.95;;;10.88;;
34982;SDS011;21187;50.976;13.720;2023-03-04T07:37:11;44.40;;;15.55;;
34982;SDS011;21187;50.976;13.720;2023-03-04T07:42:12;35.35;;;11.18;;
34982;SDS011;21187;50.976;13.720;2023-03-04T07:47:16;49.88;;;16.52;;
34982;SDS011;21187;50.976;13.720;2023-03-04T07:52:18;32.05;;;10.63;;
34982;SDS011;21187;50.976;13.720;2023-03-04T07:57:20;27.13;;;9.27;;
34982;SDS011;21187;50.976;13.720;2023-03-04T08:02:21;26.48;;;10.45;;
34982;SDS011;21187;50.976;13.720;2023-03-04T08:07:23;36.83;;;10.65;;
34982;SDS011;21187;50.976;13.720;2023-03-04T08:12:25;29.45;;;10.15;;
34982;SDS011;21187;50.976;13.720;2023-03-04T08:17:28;27.40;;;9.07;;
34982;SDS011;21187;50.976;13.720;2023-03-04T08:22:30;28.45;;;9.68;;
34982;SDS011;21187;50.976;13.720;2023-03-04T08:27:32;23.83;;;8.93;;
34982;SDS011;21187;50.976;13.720;2023-03-04T08:32:34;30.48;;;10.10;;
34982;SDS011;21187;50.976;13.720;2023-03-04T08:37:36;35.03;;;9.32;;
34982;SDS011;21187;50.976;13.720;2023-03-04T08:42:37;32.45;;;9.93;;
34982;SDS011;21187;50.976;13.720;2023-03-04T08:47:39;28.77;;;9.30;;
34982;SDS011;21187;50.976;13.720;2023-03-04T08:52:41;26.25;;;11.27;;
34982;SDS011;21187;50.976;13.720;2023-03-04T08:57:43;23.15;;;9.52;;
34982;SDS011;21187;50.976;13.720;2023-03-04T09:02:44;26.38;;;8.13;;
34982;SDS011;21187;50.976;13.720;2023-03-04T09:07:46;21.52;;;9.20;;
34982;SDS011;21187;50.976;13.720;2023-03-04T09:12:48;27.23;;;8.10;;
34982;SDS011;21187;50.976;13.720;2023-03-04T09:17:50;21.38;;;7.90;;
34982;SDS011;21187;50.976;13.720;2023-03-04T09:22:52;18.80;;;7.47;;
34982;SDS011;21187;50.976;13.720;2023-03-04T09:27:54;17.35;;;7.47;;
34982;SDS011;21187;50.976;13.720;2023-03-04T09:32:56;20.55;;;7.38;;
34982;SDS011;21187;50.976;13.720;2023-03-04T09:37:58;18.33;;;7.43;;
34982;SDS011;21187;50.976;13.720;2023-03-04T09:43:03;26.35;;;8.55;;
34982;SDS011;21187;50.976;13.720;2023-03-04T09:48:08;17.88;;;6.95;;
34982;SDS011;21187;50.976;13.720;2023-03-04T10:03:24;24.85;;;7.97;;
34982;SDS011;21187;50.976;13.720;2023-03-04T10:08:45;22.02;;;7.28;;
34982;SDS011;21187;50.976;13.720;2023-03-04T10:13:55;20.08;;;6.85;;
34982;SDS011;21187;50.976;13.720;2023-03-04T10:24:10;24.83;;;6.70;;
34982;SDS011;21187;50.976;13.720;2023-03-04T10:34:17;17.30;;;6.22;;
34982;SDS011;21187;50.976;13.720;2023-03-04T10:39:53;17.65;;;5.50;;
34982;SDS011;21187;50.976;13.720;2023-03-04T10:44:54;21.73;;;5.50;;
34982;SDS011;21187;50.976;13.720;2023-03-04T10:49:58;17.80;;;5.63;;
34982;SDS011;21187;50.976;13.720;2023-03-04T10:55:02;11.13;;;5.38;;
34982;SDS011;21187;50.976;13.720;2023-03-04T11:05:19;19.58;;;5.93;;
34982;SDS011;21187;50.976;13.720;2023-03-04T11:21:03;18.08;;;5.68;;
34982;SDS011;21187;50.976;13.720;2023-03-04T11:26:08;15.48;;;5.53;;
34982;SDS011;21187;50.976;13.720;2023-03-04T11:31:19;11.02;;;4.53;;
34982;SDS011;21187;50.976;13.720;2023-03-04T11:41:36;17.67;;;5.07;;
34982;SDS011;21187;50.976;13.720;2023-03-04T11:46:55;28.77;;;5.03;;
34982;SDS011;21187;50.976;13.720;2023-03-04T11:57:34;17.70;;;5.50;;
34982;SDS011;21187;50.976;13.720;2023-03-04T12:24:33;16.42;;;5.38;;
34982;SDS011;21187;50.976;13.720;2023-03-04T12:45:03;12.15;;;4.30;;
34982;SDS011;21187;50.976;13.720;2023-03-04T12:55:16;12.57;;;4.32;;
34982;SDS011;21187;50.976;13.720;2023-03-04T13:16:31;16.15;;;4.60;;
34982;SDS011;21187;50.976;13.720;2023-03-04T13:21:43;13.90;;;4.15;;
34982;SDS011;21187;50.976;13.720;2023-03-04T13:26:48;15.20;;;4.40;;
34982;SDS011;21187;50.976;13.720;2023-03-04T13:31:56;16.60;;;3.55;;
34982;SDS011;21187;50.976;13.720;2023-03-04T13:37:25;14.45;;;4.90;;
34982;SDS011;21187;50.976;13.720;2023-03-04T13:42:41;16.73;;;5.57;;
34982;SDS011;21187;50.976;13.720;2023-03-04T13:52:47;10.48;;;3.33;;
34982;SDS011;21187;50.976;13.720;2023-03-04T13:57:49;7.13;;;2.40;;
34982;SDS011;21187;50.976;13.720;2023-03-04T14:02:52;7.57;;;2.70;;
34982;SDS011;21187;50.976;13.720;2023-03-04T14:07:53;11.00;;;2.90;;
34982;SDS011;21187;50.976;13.720;2023-03-04T14:12:55;9.68;;;3.30;;
34982;SDS011;21187;50.976;13.720;2023-03-04T14:18:03;12.20;;;8.48;;
34982;SDS011;21187;50.976;13.720;2023-03-04T14:28:24;5.95;;;2.92;;
34982;SDS011;21187;50.976;13.720;2023-03-04T14:33:27;8.48;;;3.17;;
34982;SDS011;21187;50.976;13.720;2023-03-04T14:38:31;8.45;;;2.90;;
34982;SDS011;21187;50.976;13.720;2023-03-04T14:43:46;14.38;;;3.33;;
34982;SDS011;21187;50.976;13.720;2023-03-04T14:49:12;6.65;;;3.08;;
34982;SDS011;21187;50.976;13.720;2023-03-04T14:59:43;8.30;;;3.28;;
34982;SDS011;21187;50.976;13.720;2023-03-04T15:04:45;11.82;;;2.83;;
34982;SDS011;21187;50.976;13.720;2023-03-04T15:09:49;7.03;;;3.17;;
34982;SDS011;21187;50.976;13.720;2023-03-04T15:14:58;9.35;;;2.90;;
34982;SDS011;21187;50.976;13.720;2023-03-04T15:25:11;7.32;;;2.50;;
34982;SDS011;21187;50.976;13.720;2023-03-04T15:30:16;17.80;;;3.20;;
34982;SDS011;21187;50.976;13.720;2023-03-04T15:35:22;15.57;;;3.60;;
34982;SDS011;21187;50.976;13.720;2023-03-04T15:40:27;11.18;;;3.05;;
34982;SDS011;21187;50.976;13.720;2023-03-04T15:45:32;7.78;;;1.80;;
34982;SDS011;21187;50.976;13.720;2023-03-04T15:50:39;14.82;;;2.17;;
34982;SDS011;21187;50.976;13.720;2023-03-04T15:55:44;13.13;;;2.10;;
34982;SDS011;21187;50.976;13.720;2023-03-04T16:00:47;8.98;;;2.00;;
34982;SDS011;21187;50.976;13.720;2023-03-04T16:05:49;7.57;;;2.35;;
34982;SDS011;21187;50.976;13.720;2023-03-04T16:10:52;13.57;;;2.28;;
34982;SDS011;21187;50.976;13.720;2023-03-04T16:15:55;12.02;;;3.03;;
34982;SDS011;21187;50.976;13.720;2023-03-04T16:20:57;15.10;;;3.17;;
34982;SDS011;21187;50.976;13.720;2023-03-04T16:26:00;16.48;;;3.38;;
34982;SDS011;21187;50.976;13.720;2023-03-04T16:31:02;20.42;;;2.80;;
34982;SDS011;21187;50.976;13.720;2023-03-04T16:36:13;10.13;;;3.42;;
34982;SDS011;21187;50.976;13.720;2023-03-04T16:41:21;22.67;;;3.10;;
34982;SDS011;21187;50.976;13.720;2023-03-04T16:46:28;13.60;;;2.95;;
34982;SDS011;21187;50.976;13.720;2023-03-04T16:51:32;13.93;;;2.20;;
34982;SDS011;21187;50.976;13.720;2023-03-04T16:56:36;18.63;;;3.78;;
34982;SDS011;21187;50.976;13.720;2023-03-04T17:01:38;13.95;;;5.25;;
34982;SDS011;21187;50.976;13.720;2023-03-04T17:06:40;10.20;;;2.70;;
34982;SDS011;21187;50.976;13.720;2023-03-04T17:11:42;10.40;;;2.72;;
34982;SDS011;21187;50.976;13.720;2023-03-04T17:16:44;7.40;;;1.88;;
34982;SDS011;21187;50.976;13.720;2023-03-04T17:21:45;10.20;;;2.70;;
34982;SDS011;21187;50.976;13.720;2023-03-04T17:26:47;11.40;;;2.38;;
34982;SDS011;21187;50.976;13.720;2023-03-04T17:31:49;11.68;;;2.42;;
34982;SDS011;21187;50.976;13.720;2023-03-04T17:36:51;10.40;;;2.42;;
34982;SDS011;21187;50.976;13.720;2023-03-04T17:41:53;10.13;;;2.95;;
34982;SDS011;21187;50.976;13.720;2023-03-04T17:46:55;5.72;;;2.05;;
34982;SDS011;21187;50.976;13.720;2023-03-04T17:51:57;9.90;;;2.30;;
34982;SDS011;21187;50.976;13.720;2023-03-04T17:56:59;10.15;;;2.10;;
34982;SDS011;21187;50.976;13.720;2023-03-04T18:02:03;15.55;;;3.03;;
34982;SDS011;21187;50.976;13.720;2023-03-04T18:07:05;8.98;;;1.95;;
34982;SDS011;21187;50.976;13.720;2023-03-04T18:12:06;15.80;;;2.85;;
34982;SDS011;21187;50.976;13.720;2023-03-04T18:17:08;10.70;;;1.70;;
34982;SDS011;21187;50.976;13.720;2023-03-04T18:22:10;11.65;;;2.30;;
34982;SDS011;21187;50.976;13.720;2023-03-04T18:27:12;10.25;;;2.22;;
34982;SDS011;21187;50.976;13.720;2023-03-04T18:32:14;12.70;;;3.45;;
34982;SDS011;21187;50.976;13.720;2023-03-04T18:37:16;16.08;;;3.10;;
34982;SDS011;21187;50.976;13.720;2023-03-04T18:42:17;8.93;;;2.33;;
34982;SDS011;21187;50.976;13.720;2023-03-04T18:47:19;12.68;;;3.10;;
34982;SDS011;21187;50.976;13.720;2023-03-04T18:57:59;10.30;;;2.03;;
34982;SDS011;21187;50.976;13.720;2023-03-04T19:03:03;9.80;;;2.67;;
34982;SDS011;21187;50.976;13.720;2023-03-04T19:08:09;16.42;;;2.90;;
34982;SDS011;21187;50.976;13.720;2023-03-04T19:13:11;17.77;;;6.75;;
34982;SDS011;21187;50.976;13.720;2023-03-04T19:18:13;22.98;;;9.95;;
34982;SDS011;21187;50.976;13.720;2023-03-04T19:23:15;14.43;;;3.22;;
34982;SDS011;21187;50.976;13.720;2023-03-04T19:28:18;9.55;;;2.60;;
34982;SDS011;21187;50.976;13.720;2023-03-04T19:33:19;11.65;;;2.80;;
34982;SDS011;21187;50.976;13.720;2023-03-04T19:38:21;10.10;;;2.75;;
34982;SDS011;21187;50.976;13.720;2023-03-04T19:43:23;12.77;;;2.88;;
34982;SDS011;21187;50.976;13.720;2023-03-04T19:48:25;11.95;;;2.20;;
34982;SDS011;21187;50.976;13.720;2023-03-04T19:53:27;12.70;;;2.90;;
34982;SDS011;21187;50.976;13.720;2023-03-04T19:58:29;12.15;;;2.47;;
34982;SDS011;21187;50.976;13.720;2023-03-04T20:03:30;10.52;;;2.55;;
34982;SDS011;21187;50.976;13.720;2023-03-04T20:08:33;13.55;;;2.53;;
34982;SDS011;21187;50.976;13.720;2023-03-04T20:13:38;14.40;;;3.83;;
34982;SDS011;21187;50.976;13.720;2023-03-04T20:18:40;18.48;;;3.67;;
34982;SDS011;21187;50.976;13.720;2023-03-04T20:23:43;18.98;;;3.42;;
34982;SDS011;21187;50.976;13.720;2023-03-04T20:28:44;17.83;;;3.22;;
34982;SDS011;21187;50.976;13.720;2023-03-04T20:33:46;15.15;;;3.05;;
34982;SDS011;21187;50.976;13.720;2023-03-04T20:38:50;16.52;;;3.10;;
34982;SDS011;21187;50.976;13.720;2023-03-04T20:44:02;8.85;;;3.72;;
34982;SDS011;21187;50.976;13.720;2023-03-04T20:49:07;15.13;;;3.75;;
34982;SDS011;21187;50.976;13.720;2023-03-04T20:54:11;29.27;;;3.45;;
34982;SDS011;21187;50.976;13.720;2023-03-04T20:59:13;16.35;;;3.08;;
34982;SDS011;21187;50.976;13.720;2023-03-04T21:04:16;17.65;;;3.53;;
34982;SDS011;21187;50.976;13.720;2023-03-04T21:09:19;19.50;;;3.72;;
34982;SDS011;21187;50.976;13.720;2023-03-04T21:14:23;18.77;;;3.42;;
34982;SDS011;21187;50.976;13.720;2023-03-04T21:19:27;14.68;;;3.33;;
34982;SDS011;21187;50.976;13.720;2023-03-04T21:24:32;18.65;;;2.92;;
34982;SDS011;21187;50.976;13.720;2023-03-04T21:29:35;23.45;;;3.10;;
34982;SDS011;21187;50.976;13.720;2023-03-04T21:34:38;21.30;;;3.40;;
34982;SDS011;21187;50.976;13.720;2023-03-04T21:39:42;26.02;;;3.28;;
34982;SDS011;21187;50.976;13.720;2023-03-04T21:44:47;19.85;;;3.15;;
34982;SDS011;21187;50.976;13.720;2023-03-04T21:49:51;21.45;;;3.35;;
34982;SDS011;21187;50.976;13.720;2023-03-04T21:54:53;21.13;;;3.58;;
34982;SDS011;21187;50.976;13.720;2023-03-04T21:59:56;22.48;;;3.00;;
34982;SDS011;21187;50.976;13.720;2023-03-04T22:04:58;9.80;;;2.83;;
34982;SDS011;21187;50.976;13.720;2023-03-04T22:10:00;15.82;;;3.55;;
34982;SDS011;21187;50.976;13.720;2023-03-04T22:15:03;17.42;;;2.88;;
34982;SDS011;21187;50.976;13.720;2023-03-04T22:20:05;19.33;;;3.35;;
34982;SDS011;21187;50.976;13.720;2023-03-04T22:25:08;14.05;;;2.67;;
34982;SDS011;21187;50.976;13.720;2023-03-04T22:30:10;18.98;;;2.67;;
34982;SDS011;21187;50.976;13.720;2023-03-04T22:35:15;16.55;;;2.50;;
34982;SDS011;21187;50.976;13.720;2023-03-04T22:40:18;16.85;;;2.65;;
34982;SDS011;21187;50.976;13.720;2023-03-04T22:45:20;21.77;;;2.80;;
34982;SDS011;21187;50.976;13.720;2023-03-04T22:50:22;24.52;;;3.38;;
34982;SDS011;21187;50.976;13.720;2023-03-04T22:55:24;17.83;;;3.10;;
34982;SDS011;21187;50.976;13.720;2023-03-04T23:00:26;11.40;;;2.40;;
34982;SDS011;21187;50.976;13.720;2023-03-04T23:05:30;14.48;;;2.75;;
34982;SDS011;21187;50.976;13.720;2023-03-04T23:10:31;21.85;;;2.67;;
34982;SDS011;21187;50.976;13.720;2023-03-04T23:15:33;21.40;;;2.63;;
34982;SDS011;21187;50.976;13.720;2023-03-04T23:20:35;14.93;;;2.72;;
34982;SDS011;21187;50.976;13.720;2023-03-04T23:25:39;21.27;;;3.13;;
34982;SDS011;21187;50.976;13.720;2023-03-04T23:30:41;17.45;;;2.40;;
34982;SDS011;21187;50.976;13.720;2023-03-04T23:35:43;9.38;;;2.30;;
34982;SDS011;21187;50.976;13.720;2023-03-04T23:40:45;18.80;;;3.53;;
34982;SDS011;21187;50.976;13.720;2023-03-04T23:45:46;9.35;;;2.53;;
34982;SDS011;21187;50.976;13.720;2023-03-04T23:50:51;7.63;;;1.92;;
34982;SDS011;21187;50.976;13.720;2023-03-04T23:55:54;11.10;;;2.72;;
